Dupo, Illinois
Current Conditions -  °F | °C
As of 7:53 AM on Saturday 22 Nov 2014 (Local Time) from KCPS Reporting Station
Overcast Overcast  
Wind Chill: 47°   Ceiling: 8000
Heat Index: 47°   Visibility: 10mi
Dew Point: 42°   Wind: 3mph
Humidity: 83%   Direction: 150°SSE
Pressure: 30.12"   Gusts: NA
Location:  38.52°N, 90.21°W
Report Text: KCPS 221353Z AUTO 15003KT 10SM FEW003 FEW060 OVC080 08/06 A3012 RMK AO2 SLP200 T00830056 TSNO
Loading
Personal Weather Stations






























Interactive Weather Map New forecast layout! Learn more

10-Day Weather Forecast

Advertisements
Track Severe Weather on mobile